Time;durP1;ratioP1;P1;durP2;ratioP2;P2;SDS_P1;SDS_P2;PMS_P1;PMS_P2;Temp;Humidity;BMP_temperature;BMP_pressure;BME280_temperature;BME280_humidity;BME280_pressure;Samples;Min_cycle;Max_cycle;Signal;HPM_P1;HPM_P2
2022/06/28 00:00:11;;;;;;;15.65;5.57;;;21.80;63.30;;;;;;5087360;28;20107;-45
2022/06/28 00:02:37;;;;;;;9.50;3.55;;;21.80;63.30;;;;;;5086897;28;20097;-45
2022/06/28 00:05:04;;;;;;;5.47;2.42;;;21.80;63.30;;;;;;5078180;28;20044;-46
2022/06/28 00:07:30;;;;;;;6.53;2.53;;;21.80;63.30;;;;;;5063598;28;20036;-45
2022/06/28 00:09:56;;;;;;;5.25;2.30;;;21.80;63.20;;;;;;5083446;28;20058;-45
2022/06/28 00:12:22;;;;;;;4.65;1.90;;;21.90;63.30;;;;;;5093188;28;20028;-47
2022/06/28 00:17:34;;;;;;;253.13;120.90;;;21.90;63.30;;;;;;5081496;28;20059;-46
2022/06/28 00:20:00;;;;;;;46.40;23.13;;;21.90;63.30;;;;;;5086247;28;20028;-47
2022/06/28 00:22:26;;;;;;;29.98;14.27;;;21.90;62.90;;;;;;5081358;28;20035;-44
2022/06/28 00:24:52;;;;;;;65.35;32.00;;;21.90;62.30;;;;;;5074390;28;20043;-45
2022/06/28 00:27:18;;;;;;;90.75;46.20;;;21.90;62.00;;;;;;5082420;28;20020;-48
2022/06/28 00:29:44;;;;;;;153.05;73.63;;;22.00;62.20;;;;;;5083125;28;20123;-44
2022/06/28 00:32:10;;;;;;;171.75;90.20;;;21.90;62.20;;;;;;5081188;28;20025;-46
2022/06/28 00:34:36;;;;;;;185.45;103.20;;;22.00;62.30;;;;;;5071706;28;20063;-44
2022/06/28 00:37:02;;;;;;;82.05;42.35;;;22.00;62.40;;;;;;5077431;28;20032;-46
2022/06/28 00:39:29;;;;;;;197.00;92.05;;;22.00;62.40;;;;;;5081787;28;20036;-44
2022/06/28 00:41:55;;;;;;;236.77;126.57;;;22.00;62.60;;;;;;5080996;28;20099;-45
2022/06/28 00:44:21;;;;;;;183.55;97.50;;;22.00;62.60;;;;;;5076329;28;20028;-44
2022/06/28 00:46:47;;;;;;;184.25;97.07;;;22.00;62.70;;;;;;5074826;28;20013;-44
2022/06/28 00:49:14;;;;;;;85.50;43.13;;;22.00;62.70;;;;;;5086375;28;20033;-44
2022/06/28 00:51:40;;;;;;;62.20;32.13;;;22.00;62.60;;;;;;5077304;28;20032;-45
2022/06/28 00:54:07;;;;;;;63.28;31.40;;;22.00;61.80;;;;;;5082273;28;20632;-44
2022/06/28 00:56:35;;;;;;;127.85;65.50;;;22.10;61.30;;;;;;5080606;28;20063;-45
2022/06/28 00:59:01;;;;;;;261.50;152.75;;;22.00;61.30;;;;;;5088506;28;20047;-46
2022/06/28 01:01:27;;;;;;;514.40;287.67;;;22.10;61.50;;;;;;5077672;28;20091;-44
2022/06/28 01:03:54;;;;;;;412.55;250.02;;;22.10;61.70;;;;;;5076638;28;20028;-48
2022/06/28 01:06:20;;;;;;;230.97;129.63;;;22.00;61.80;;;;;;5070902;28;20032;-47
2022/06/28 01:08:46;;;;;;;215.63;122.65;;;22.00;61.90;;;;;;5073700;28;20523;-59
2022/06/28 01:11:19;;;;;;;235.82;134.40;;;22.10;62.10;;;;;;5077428;28;20040;-62
2022/06/28 01:13:58;;;;;;;210.40;112.28;;;22.10;62.10;;;;;;5084001;28;20025;-58
2022/06/28 01:16:24;;;;;;;182.38;106.82;;;22.10;62.30;;;;;;5071270;28;20025;-59
2022/06/28 01:18:50;;;;;;;186.32;103.65;;;22.10;62.40;;;;;;5067742;28;20035;-59
2022/06/28 01:21:17;;;;;;;189.50;105.25;;;22.10;62.40;;;;;;5071314;28;20033;-58
2022/06/28 01:23:44;;;;;;;175.67;97.60;;;22.10;62.50;;;;;;5071711;28;20036;-58
2022/06/28 01:26:13;;;;;;;;;;;22.10;62.60;;;;;;5071988;28;20281;-57
2022/06/28 01:28:40;;;;;;;161.48;90.88;;;22.10;62.40;;;;;;5068983;28;19913;-58
2022/06/28 01:31:06;;;;;;;162.13;88.07;;;22.10;62.60;;;;;;5070835;28;20029;-58
2022/06/28 01:33:33;;;;;;;153.45;86.00;;;22.10;62.60;;;;;;5068809;28;20024;-59
2022/06/28 01:35:59;;;;;;;154.52;86.22;;;22.20;62.70;;;;;;5068821;28;20055;-59
2022/06/28 01:38:26;;;;;;;146.85;80.78;;;22.20;62.70;;;;;;5077794;28;20031;-58
2022/06/28 01:40:52;;;;;;;138.43;77.90;;;22.20;62.80;;;;;;5073739;28;20041;-59
2022/06/28 01:43:18;;;;;;;138.45;73.90;;;22.20;62.80;;;;;;5076106;28;20052;-57
2022/06/28 01:45:44;;;;;;;108.63;58.65;;;22.20;62.80;;;;;;5073793;28;20021;-58
2022/06/28 01:48:10;;;;;;;86.55;47.05;;;22.20;62.40;;;;;;5077621;28;20017;-59
2022/06/28 01:50:37;;;;;;;98.95;54.38;;;22.20;62.00;;;;;;5073623;28;20036;-58
2022/06/28 01:53:03;;;;;;;96.13;51.45;;;22.20;62.10;;;;;;5074367;28;20026;-57
2022/06/28 01:55:30;;;;;;;86.15;48.03;;;22.20;62.20;;;;;;5072785;28;20033;-59
2022/06/28 01:57:56;;;;;;;81.13;45.83;;;22.20;62.10;;;;;;5073076;28;20082;-59
2022/06/28 02:00:22;;;;;;;77.82;44.13;;;22.30;62.10;;;;;;5073935;28;20029;-58
2022/06/28 02:02:48;;;;;;;81.30;44.08;;;22.30;62.10;;;;;;5068581;28;20029;-58
2022/06/28 02:05:14;;;;;;;81.43;42.70;;;22.30;62.10;;;;;;5074712;28;20116;-58
2022/06/28 02:07:47;;;;;;;77.30;41.03;;;22.30;62.10;;;;;;5072389;28;20033;-61
2022/06/28 02:10:13;;;;;;;70.20;39.45;;;22.30;62.20;;;;;;5075248;28;20107;-60
2022/06/28 02:12:39;;;;;;;71.40;39.10;;;22.30;62.10;;;;;;5074580;28;20576;-58
2022/06/28 02:15:06;;;;;;;67.88;36.50;;;22.30;62.10;;;;;;5071926;28;20028;-58
2022/06/28 02:17:32;;;;;;;65.13;34.90;;;22.30;62.20;;;;;;5070059;28;20057;-59
2022/06/28 02:19:58;;;;;;;62.83;35.58;;;22.30;62.20;;;;;;5073607;28;20317;-59
2022/06/28 02:22:24;;;;;;;59.83;33.63;;;22.30;62.10;;;;;;5073815;28;20029;-58
2022/06/28 02:24:51;;;;;;;60.15;32.92;;;22.30;62.20;;;;;;5079613;28;20159;-59
2022/06/28 02:27:18;;;;;;;59.38;31.98;;;22.40;62.20;;;;;;5075783;28;20028;-60
2022/06/28 02:29:44;;;;;;;51.73;29.70;;;22.30;62.30;;;;;;5072990;28;20090;-59
2022/06/28 02:32:11;;;;;;;47.85;27.05;;;22.30;62.20;;;;;;5073710;28;20050;-59
2022/06/28 02:40:23;;;;;;;37.20;21.52;;;22.40;61.60;;;;;;5073951;28;20031;-59
2022/06/28 02:42:54;;;;;;;36.15;20.27;;;22.40;61.60;;;;;;5074275;28;20505;-60
2022/06/28 02:45:20;;;;;;;35.90;19.83;;;22.40;61.60;;;;;;5077982;28;20051;-59
2022/06/28 02:47:47;;;;;;;33.72;18.80;;;22.40;61.60;;;;;;5078037;28;20029;-60
2022/06/28 02:50:13;;;;;;;30.38;17.65;;;22.40;61.60;;;;;;5075955;28;20052;-59
2022/06/28 02:52:39;;;;;;;32.40;17.58;;;22.40;61.60;;;;;;5080896;28;20575;-60
2022/06/28 02:55:06;;;;;;;28.05;17.30;;;22.40;61.60;;;;;;5078276;28;20036;-59
2022/06/28 02:57:33;;;;;;;30.30;17.20;;;22.40;61.60;;;;;;5082488;28;20725;-60
2022/06/28 02:59:59;;;;;;;29.33;16.65;;;22.40;61.50;;;;;;5077193;28;20037;-60
2022/06/28 03:02:25;;;;;;;26.05;15.65;;;22.40;61.50;;;;;;5078254;28;20017;-60
2022/06/28 03:04:51;;;;;;;24.95;15.40;;;22.40;61.50;;;;;;5073958;28;20123;-61
2022/06/28 03:07:18;;;;;;;25.20;15.20;;;22.40;61.50;;;;;;5070371;28;20027;-62
2022/06/28 03:09:44;;;;;;;24.30;14.40;;;22.40;61.50;;;;;;5074744;28;20063;-62
2022/06/28 03:12:10;;;;;;;23.63;14.38;;;22.40;61.50;;;;;;5074848;28;20787;-58
2022/06/28 03:14:36;;;;;;;23.33;13.82;;;22.40;61.60;;;;;;5075314;28;20036;-60
2022/06/28 03:17:03;;;;;;;22.38;12.85;;;22.40;61.50;;;;;;5078478;28;20044;-59
2022/06/28 03:19:29;;;;;;;21.00;12.55;;;22.40;61.60;;;;;;5076539;28;20091;-59
2022/06/28 03:21:55;;;;;;;16.38;10.82;;;22.40;61.50;;;;;;5071359;28;20031;-60
2022/06/28 03:24:21;;;;;;;16.25;9.43;;;22.40;61.10;;;;;;5068254;28;20025;-60
2022/06/28 03:26:47;;;;;;;16.52;10.18;;;22.50;61.10;;;;;;5067020;28;20032;-59
2022/06/28 03:29:13;;;;;;;14.93;9.43;;;22.50;61.10;;;;;;5071576;28;20037;-58
2022/06/28 03:31:39;;;;;;;14.50;9.32;;;22.50;61.10;;;;;;5071114;28;20101;-64
2022/06/28 03:34:05;;;;;;;14.32;9.13;;;22.50;61.10;;;;;;5064914;28;20025;-58
2022/06/28 03:36:31;;;;;;;15.13;8.90;;;22.50;61.00;;;;;;5069056;28;20033;-58
2022/06/28 03:38:57;;;;;;;14.63;9.13;;;22.50;61.00;;;;;;5068175;28;20126;-59
2022/06/28 03:41:23;;;;;;;13.30;8.45;;;22.50;61.00;;;;;;5071904;28;20058;-59
2022/06/28 03:43:50;;;;;;;13.65;8.00;;;22.50;61.00;;;;;;5068606;28;20078;-58
2022/06/28 03:46:16;;;;;;;12.65;8.55;;;22.50;61.20;;;;;;5073797;28;20127;-59
2022/06/28 03:48:43;;;;;;;12.77;7.82;;;22.50;61.40;;;;;;5067729;28;20040;-60
2022/06/28 03:51:10;;;;;;;13.35;8.07;;;22.50;61.40;;;;;;5079634;28;20044;-59
2022/06/28 03:53:36;;;;;;;11.52;7.35;;;22.50;61.40;;;;;;5080514;28;20031;-59
2022/06/28 03:56:02;;;;;;;13.32;7.85;;;22.50;61.40;;;;;;5078270;28;20028;-59
2022/06/28 03:58:28;;;;;;;11.25;7.25;;;22.50;61.40;;;;;;5077386;28;20027;-60
2022/06/28 04:00:54;;;;;;;11.60;7.28;;;22.50;61.40;;;;;;5073260;28;20056;-62
2022/06/28 04:03:20;;;;;;;11.52;7.75;;;22.50;61.50;;;;;;5075146;28;20108;-61
2022/06/28 04:05:47;;;;;;;9.70;6.88;;;22.50;61.50;;;;;;5072561;28;20033;-61
2022/06/28 04:08:13;;;;;;;9.55;6.72;;;22.50;61.50;;;;;;5072476;28;20035;-61
2022/06/28 04:10:39;;;;;;;10.23;7.32;;;22.50;61.50;;;;;;5077350;28;20043;-61
2022/06/28 04:13:05;;;;;;;11.63;7.20;;;22.50;61.50;;;;;;5076130;28;20028;-61
2022/06/28 04:15:31;;;;;;;10.23;7.00;;;22.50;61.50;;;;;;5073769;28;20052;-62
2022/06/28 04:17:58;;;;;;;9.43;6.13;;;22.50;61.50;;;;;;5075266;28;20030;-58
2022/06/28 04:20:24;;;;;;;9.65;6.55;;;22.50;61.50;;;;;;5075631;28;20032;-59
2022/06/28 04:22:50;;;;;;;10.13;6.80;;;22.50;61.50;;;;;;5058973;28;20017;-59
2022/06/28 04:25:17;;;;;;;9.90;6.35;;;22.50;61.50;;;;;;5073088;28;20090;-59
2022/06/28 04:27:43;;;;;;;9.23;6.45;;;22.50;61.50;;;;;;5076219;28;20048;-60
2022/06/28 04:30:10;;;;;;;10.13;6.15;;;22.50;61.50;;;;;;5081865;28;20033;-59
2022/06/28 04:32:36;;;;;;;8.00;6.00;;;22.50;61.60;;;;;;5078910;28;20070;-60
2022/06/28 04:35:02;;;;;;;10.40;6.33;;;22.60;61.70;;;;;;5095697;28;20024;-59
2022/06/28 04:37:28;;;;;;;7.53;5.38;;;22.60;61.70;;;;;;5082974;28;20277;-59
2022/06/28 04:39:55;;;;;;;8.63;5.88;;;22.60;61.80;;;;;;5083433;28;20080;-57
2022/06/28 04:42:21;;;;;;;9.15;5.65;;;22.60;62.60;;;;;;5082196;28;20044;-58
2022/06/28 04:44:47;;;;;;;9.02;5.70;;;22.60;61.90;;;;;;5075384;28;20060;-58
2022/06/28 04:47:13;;;;;;;8.25;5.82;;;22.60;61.90;;;;;;5069616;28;20096;-59
2022/06/28 04:49:39;;;;;;;7.60;5.88;;;22.60;61.90;;;;;;5074824;28;21072;-60
2022/06/28 04:52:05;;;;;;;7.47;5.53;;;22.60;61.90;;;;;;5074107;28;20039;-60
2022/06/28 04:54:32;;;;;;;7.80;5.63;;;22.60;61.90;;;;;;5073851;28;20132;-59
2022/06/28 04:56:58;;;;;;;8.35;5.25;;;22.60;61.80;;;;;;5069964;28;20033;-60
2022/06/28 04:59:24;;;;;;;7.18;5.22;;;22.60;61.80;;;;;;5066808;28;20048;-60
2022/06/28 05:01:50;;;;;;;7.70;5.45;;;22.60;61.80;;;;;;5066487;28;20078;-58
2022/06/28 05:04:16;;;;;;;8.55;5.60;;;22.60;61.80;;;;;;5069466;28;20059;-59
2022/06/28 05:06:42;;;;;;;8.50;5.55;;;22.60;61.80;;;;;;5065950;28;20055;-59
2022/06/28 05:09:08;;;;;;;7.93;5.30;;;22.60;61.80;;;;;;5066741;28;20092;-61
2022/06/28 05:11:34;;;;;;;8.07;5.13;;;22.60;61.80;;;;;;5069809;28;20819;-59
2022/06/28 05:14:00;;;;;;;8.13;5.35;;;22.60;61.70;;;;;;5070868;28;20029;-62
2022/06/28 05:16:27;;;;;;;5.97;4.93;;;22.60;61.70;;;;;;5068730;28;20028;-62
2022/06/28 05:18:53;;;;;;;6.43;4.68;;;22.70;61.80;;;;;;5072480;28;20025;-62
2022/06/28 05:21:19;;;;;;;5.90;4.57;;;22.70;61.70;;;;;;5071894;28;20037;-61
2022/06/28 05:23:45;;;;;;;4.85;3.75;;;22.70;61.50;;;;;;5067545;28;20043;-60
2022/06/28 05:26:11;;;;;;;4.13;3.10;;;22.70;60.90;;;;;;5073640;28;20076;-60
2022/06/28 05:28:37;;;;;;;4.90;3.72;;;22.70;60.40;;;;;;5082449;28;20040;-61
2022/06/28 05:31:03;;;;;;;5.03;3.47;;;22.70;60.60;;;;;;5088380;28;20075;-61
2022/06/28 05:33:30;;;;;;;4.60;3.80;;;22.70;60.70;;;;;;5086388;28;20012;-61
2022/06/28 05:35:56;;;;;;;4.53;3.60;;;22.70;60.60;;;;;;5084041;28;20793;-61
2022/06/28 05:38:22;;;;;;;4.10;3.67;;;22.70;60.60;;;;;;5082143;28;20036;-61
2022/06/28 05:40:48;;;;;;;5.60;3.80;;;22.60;60.50;;;;;;5080377;28;20140;-60
2022/06/28 05:43:14;;;;;;;4.72;3.70;;;22.60;60.50;;;;;;5099727;28;20051;-60
2022/06/28 05:45:41;;;;;;;5.38;3.78;;;22.60;60.60;;;;;;5091198;28;20021;-60
2022/06/28 05:48:07;;;;;;;4.22;3.60;;;22.60;60.60;;;;;;5081650;28;20033;-59
2022/06/28 05:50:33;;;;;;;4.63;3.72;;;22.60;60.60;;;;;;5082309;28;20036;-59
2022/06/28 05:52:59;;;;;;;5.07;4.05;;;22.60;60.60;;;;;;5078004;28;20025;-59
2022/06/28 05:55:25;;;;;;;4.53;3.20;;;22.70;60.70;;;;;;5070399;28;20033;-59
2022/06/28 05:57:51;;;;;;;4.35;3.60;;;22.60;60.60;;;;;;5078198;28;20035;-61
2022/06/28 06:00:18;;;;;;;4.05;3.28;;;22.60;60.70;;;;;;5078858;28;20176;-59
2022/06/28 06:02:44;;;;;;;6.07;3.70;;;22.60;60.70;;;;;;5083319;28;20107;-59
2022/06/28 06:05:11;;;;;;;4.22;3.70;;;22.60;60.80;;;;;;5092949;28;20035;-59
2022/06/28 06:07:37;;;;;;;;;;;22.60;60.80;;;;;;5068409;28;20025;-59
2022/06/28 06:10:03;;;;;;;4.68;3.63;;;22.60;60.60;;;;;;5080686;28;19939;-59
2022/06/28 06:12:30;;;;;;;4.63;3.60;;;22.60;60.80;;;;;;5077364;28;20021;-58
2022/06/28 06:14:57;;;;;;;4.80;3.45;;;22.60;60.80;;;;;;5078592;28;20285;-58
2022/06/28 06:17:23;;;;;;;;;;;22.60;60.80;;;;;;5071402;28;20098;-58
2022/06/28 06:19:49;;;;;;;3.83;2.83;;;22.60;60.80;;;;;;5074672;28;20311;-59
2022/06/28 06:22:15;;;;;;;4.30;3.45;;;22.60;60.90;;;;;;5079340;28;20020;-59
2022/06/28 06:24:41;;;;;;;4.25;3.58;;;22.60;61.00;;;;;;5088861;28;20020;-59
2022/06/28 06:27:08;;;;;;;3.75;3.28;;;22.60;61.00;;;;;;5079015;28;20036;-59
2022/06/28 06:29:35;;;;;;;3.47;3.10;;;22.60;61.00;;;;;;5078434;28;20565;-59
2022/06/28 06:32:01;;;;;;;4.25;3.03;;;22.60;61.00;;;;;;5075940;28;20032;-59
2022/06/28 06:34:27;;;;;;;3.58;2.97;;;22.60;61.00;;;;;;5080738;28;20048;-59
2022/06/28 06:36:54;;;;;;;4.13;3.40;;;22.60;61.10;;;;;;5079073;28;20024;-59
2022/06/28 06:39:20;;;;;;;4.35;3.25;;;22.60;61.10;;;;;;5067308;28;20401;-59
2022/06/28 06:41:46;;;;;;;4.35;3.20;;;22.60;61.10;;;;;;5089088;28;20028;-59
2022/06/28 06:44:13;;;;;;;3.25;2.95;;;22.60;61.10;;;;;;5082144;28;20036;-59
2022/06/28 06:46:39;;;;;;;3.75;3.17;;;22.60;61.10;;;;;;5064059;28;20121;-59
2022/06/28 06:49:05;;;;;;;3.67;3.10;;;22.60;61.10;;;;;;5072615;28;20039;-59
2022/06/28 06:51:31;;;;;;;4.00;3.33;;;22.60;61.10;;;;;;5076517;28;20120;-59
2022/06/28 06:53:58;;;;;;;3.92;2.85;;;22.60;61.10;;;;;;5065313;28;20029;-58
2022/06/28 06:56:24;;;;;;;3.95;2.90;;;22.60;61.10;;;;;;5089565;28;20028;-58
2022/06/28 06:58:50;;;;;;;3.40;3.10;;;22.60;61.10;;;;;;5079512;28;20033;-58
2022/06/28 07:01:16;;;;;;;3.83;2.90;;;22.60;61.10;;;;;;5075761;28;20043;-59
2022/06/28 07:03:44;;;;;;;4.05;3.35;;;22.60;61.10;;;;;;5073018;28;20355;-58
2022/06/28 07:06:29;;;;;;;3.63;3.20;;;22.60;61.10;;;;;;4993079;28;20042;-59
2022/06/28 07:08:55;;;;;;;4.15;2.90;;;22.60;61.20;;;;;;4996488;28;20109;-59
2022/06/28 07:11:21;;;;;;;3.60;3.15;;;22.60;61.20;;;;;;4997065;28;20081;-58
2022/06/28 07:13:47;;;;;;;3.72;2.95;;;22.60;61.20;;;;;;4979636;28;20038;-59
2022/06/28 07:16:13;;;;;;;3.83;2.97;;;22.60;61.20;;;;;;4998037;28;20081;-60
2022/06/28 07:18:40;;;;;;;4.03;2.85;;;22.60;61.20;;;;;;4997010;28;20042;-59
2022/06/28 07:21:06;;;;;;;3.63;2.88;;;22.60;61.30;;;;;;4996278;28;20118;-59
2022/06/28 07:23:32;;;;;;;3.28;2.83;;;22.60;61.30;;;;;;4996522;28;20127;-59
2022/06/28 07:25:58;;;;;;;2.80;2.60;;;22.60;61.30;;;;;;4995360;28;20038;-59
2022/06/28 07:28:24;;;;;;;2.90;2.65;;;22.60;61.30;;;;;;4997691;28;20064;-59
2022/06/28 07:30:50;;;;;;;3.13;2.80;;;22.60;61.30;;;;;;4998351;28;20093;-58
2022/06/28 07:33:16;;;;;;;3.38;2.63;;;22.60;61.30;;;;;;4999489;28;20479;-59
2022/06/28 07:35:44;;;;;;;3.42;2.88;;;22.60;61.20;;;;;;4997863;28;20030;-59
2022/06/28 07:38:10;;;;;;;3.22;2.88;;;22.60;61.30;;;;;;5000677;28;20038;-59
2022/06/28 07:40:37;;;;;;;2.80;2.47;;;22.60;61.30;;;;;;5000053;28;20118;-58
2022/06/28 07:43:03;;;;;;;3.13;2.60;;;22.60;61.30;;;;;;5020416;28;20108;-59
2022/06/28 07:45:29;;;;;;;2.95;2.70;;;22.60;61.30;;;;;;5078206;28;20273;-57
2022/06/28 07:47:55;;;;;;;2.33;2.13;;;22.60;61.30;;;;;;5074369;28;20392;-46
2022/06/28 07:53:07;;;;;;;2.55;2.35;;;22.60;61.20;;;;;;5072618;28;20036;-48
2022/06/28 07:55:33;;;;;;;1.95;1.75;;;22.60;61.20;;;;;;5055540;28;20037;-51
2022/06/28 07:57:59;;;;;;;1.65;1.55;;;22.60;61.10;;;;;;5081809;28;20112;-47
2022/06/28 08:00:25;;;;;;;1.98;1.75;;;22.60;61.10;;;;;;5079056;28;20473;-49
2022/06/28 08:02:52;;;;;;;1.80;1.70;;;22.60;61.10;;;;;;5081114;28;20079;-49
2022/06/28 08:05:18;;;;;;;3.70;1.92;;;22.60;61.00;;;;;;5082568;28;20044;-44
2022/06/28 08:07:44;;;;;;;4.00;2.53;;;22.60;61.10;;;;;;5082349;28;20032;-44
2022/06/28 08:10:10;;;;;;;5.57;2.40;;;22.60;61.10;;;;;;5090723;28;20488;-46
2022/06/28 08:12:36;;;;;;;5.60;2.35;;;22.60;61.40;;;;;;5069987;28;20033;-44
2022/06/28 08:15:03;;;;;;;4.60;1.88;;;22.60;61.80;;;;;;5082393;28;20024;-44
2022/06/28 08:17:29;;;;;;;6.78;2.13;;;22.60;61.30;;;;;;5081519;28;20026;-45
2022/06/28 08:19:55;;;;;;;5.55;2.05;;;22.60;60.80;;;;;;5073884;28;20058;-44
2022/06/28 08:22:41;;;;;;;3.25;1.70;;;22.60;61.00;;;;;;5097109;28;20039;-48
2022/06/28 08:25:08;;;;;;;7.93;2.20;;;22.60;61.00;;;;;;5009912;28;20050;-48
2022/06/28 08:27:34;;;;;;;4.40;1.83;;;22.60;61.40;;;;;;5004125;28;20045;-47
2022/06/28 08:30:00;;;;;;;4.43;1.90;;;22.60;61.50;;;;;;5001569;28;20062;-48
2022/06/28 08:32:26;;;;;;;4.25;1.80;;;22.60;61.40;;;;;;5007225;28;20538;-48
2022/06/28 08:34:53;;;;;;;3.03;1.80;;;22.60;61.50;;;;;;5000567;28;20049;-52
2022/06/28 08:37:19;;;;;;;2.22;1.58;;;22.60;61.40;;;;;;5005466;28;20068;-47
2022/06/28 08:39:45;;;;;;;6.20;2.00;;;22.60;61.30;;;;;;5001261;28;20098;-48
2022/06/28 08:42:12;;;;;;;4.50;2.50;;;22.60;61.30;;;;;;5008362;28;20053;-48
2022/06/28 08:44:38;;;;;;;3.75;1.88;;;22.60;61.30;;;;;;5001358;28;20026;-47
2022/06/28 08:47:04;;;;;;;3.88;2.22;;;22.60;61.20;;;;;;4984755;28;20049;-48
2022/06/28 08:49:49;;;;;;;4.83;2.07;;;22.60;61.20;;;;;;4984454;28;20104;-48
2022/06/28 08:52:15;;;;;;;3.03;1.73;;;22.60;61.10;;;;;;4989721;28;20113;-49
2022/06/28 08:54:41;;;;;;;4.15;2.10;;;22.60;61.10;;;;;;4998239;28;20110;-47
2022/06/28 08:57:08;;;;;;;3.03;2.00;;;22.60;61.30;;;;;;4994800;28;20038;-48
2022/06/28 08:59:35;;;;;;;3.65;2.05;;;22.60;61.10;;;;;;4992411;28;20034;-51
2022/06/28 09:02:07;;;;;;;4.40;2.00;;;22.60;61.10;;;;;;5024878;28;20061;-47
2022/06/28 09:04:33;;;;;;;2.92;1.90;;;22.60;61.10;;;;;;5068171;28;20040;-48
2022/06/28 09:06:59;;;;;;;3.97;1.98;;;22.60;61.00;;;;;;5062849;28;20060;-49
2022/06/28 09:09:25;;;;;;;4.47;1.70;;;22.60;61.00;;;;;;5069878;28;20091;-49
2022/06/28 09:11:52;;;;;;;3.10;1.88;;;22.60;61.00;;;;;;5062649;28;20300;-48
2022/06/28 09:14:25;;;;;;;3.45;2.40;;;22.50;60.80;;;;;;5067706;28;20048;-48
2022/06/28 09:16:52;;;;;;;2.97;1.73;;;22.60;61.00;;;;;;5067682;28;20043;-47
2022/06/28 09:19:34;;;;;;;2.45;1.60;;;22.50;60.80;;;;;;5068150;28;20055;-50
2022/06/28 09:22:01;;;;;;;3.53;1.90;;;22.60;60.90;;;;;;5069792;28;20037;-48
2022/06/28 09:24:27;;;;;;;2.70;1.90;;;22.50;60.70;;;;;;5069754;28;20028;-48
2022/06/28 09:26:54;;;;;;;3.10;1.70;;;22.50;60.80;;;;;;5064241;28;20666;-47
2022/06/28 09:29:21;;;;;;;3.75;1.80;;;22.50;60.70;;;;;;5068860;28;20033;-47
2022/06/28 09:31:47;;;;;;;4.35;1.85;;;22.50;60.70;;;;;;5072982;28;20052;-47
2022/06/28 09:34:13;;;;;;;4.70;1.90;;;22.50;60.70;;;;;;5075044;28;20033;-47
2022/06/28 09:36:55;;;;;;;3.17;1.83;;;22.50;60.70;;;;;;5070820;28;20564;-49
2022/06/28 09:39:22;;;;;;;3.38;1.70;;;22.50;60.70;;;;;;5072426;28;20032;-46
2022/06/28 09:41:51;;;;;;;1.90;1.35;;;22.50;60.80;;;;;;5077822;28;20040;-50
2022/06/28 09:44:18;;;;;;;2.80;1.60;;;22.50;60.70;;;;;;5073691;28;20050;-48
2022/06/28 09:46:45;;;;;;;3.08;1.70;;;22.50;60.70;;;;;;5076427;28;20020;-50
2022/06/28 09:49:12;;;;;;;2.42;1.60;;;22.50;60.70;;;;;;5079648;28;20021;-48
2022/06/28 09:51:38;;;;;;;2.75;1.65;;;22.50;60.70;;;;;;5073605;28;20044;-52
2022/06/28 09:54:09;;;;;;;2.65;1.52;;;22.50;60.70;;;;;;5069048;28;20048;-48
2022/06/28 09:56:38;;;;;;;2.70;1.40;;;22.50;60.70;;;;;;5066567;28;20032;-48
2022/06/28 09:59:04;;;;;;;3.30;1.60;;;22.50;61.40;;;;;;5066211;28;20040;-47
2022/06/28 10:01:30;;;;;;;2.20;1.60;;;22.50;60.70;;;;;;5070091;28;20103;-47
2022/06/28 10:03:57;;;;;;;5.82;1.40;;;22.50;61.60;;;;;;5080630;28;20743;-50
2022/06/28 10:06:23;;;;;;;2.00;1.33;;;22.40;61.30;;;;;;5080771;28;20054;-49
2022/06/28 10:08:49;;;;;;;1.70;1.30;;;22.40;60.70;;;;;;5093881;28;20032;-50
2022/06/28 10:11:15;;;;;;;2.83;1.40;;;22.40;60.20;;;;;;5102516;28;20046;-46
2022/06/28 10:16:54;;;;;;;3.97;1.30;;;22.40;60.00;;;;;;5088264;28;20042;-48
2022/06/28 10:19:20;;;;;;;2.10;1.38;;;22.40;60.00;;;;;;5102206;28;20050;-47
2022/06/28 10:21:52;;;;;;;1.50;1.40;;;22.40;60.00;;;;;;5092345;28;20045;-47
2022/06/28 10:24:19;;;;;;;2.35;1.65;;;22.40;60.00;;;;;;5081996;28;20037;-50
2022/06/28 10:26:47;;;;;;;2.20;1.30;;;22.40;60.00;;;;;;5070831;28;20097;-48
2022/06/28 10:29:15;;;;;;;1.88;1.27;;;22.40;60.10;;;;;;5066550;28;20040;-47
2022/06/28 10:31:42;;;;;;;1.70;1.48;;;22.40;60.10;;;;;;5062549;28;20420;-48
2022/06/28 10:34:12;;;;;;;1.67;1.35;;;22.40;60.10;;;;;;5064905;28;20033;-46
2022/06/28 10:36:46;;;;;;;3.00;1.30;;;22.40;60.10;;;;;;5064195;28;20100;-47
2022/06/28 10:39:23;;;;;;;3.28;1.23;;;22.40;60.20;;;;;;5063529;28;20029;-48
2022/06/28 10:41:55;;;;;;;1.80;1.30;;;22.30;60.10;;;;;;5062764;28;20120;-47
2022/06/28 10:44:32;;;;;;;4.18;1.50;;;22.30;60.20;;;;;;5061870;28;20032;-49
2022/06/28 10:47:01;;;;;;;2.67;1.20;;;22.30;60.20;;;;;;5061214;28;20097;-47
2022/06/28 10:49:44;;;;;;;2.63;1.30;;;22.30;60.20;;;;;;5065107;28;20051;-47
2022/06/28 10:52:26;;;;;;;2.72;1.35;;;22.30;60.20;;;;;;5062680;28;20040;-49
2022/06/28 10:54:52;;;;;;;1.65;1.15;;;22.30;60.20;;;;;;5062950;28;20036;-47
2022/06/28 10:57:20;;;;;;;3.28;1.30;;;22.30;60.20;;;;;;5075873;28;20025;-47
2022/06/28 10:59:47;;;;;;;2.28;1.23;;;22.30;60.20;;;;;;5081488;28;20389;-47
2022/06/28 11:02:13;;;;;;;1.55;1.15;;;22.30;60.20;;;;;;5080078;28;20025;-49
2022/06/28 11:04:39;;;;;;;2.22;1.38;;;22.30;60.20;;;;;;5095957;28;20066;-47
2022/06/28 11:07:24;;;;;;;1.67;1.13;;;22.30;60.30;;;;;;5082278;28;20025;-47
2022/06/28 11:09:59;;;;;;;1.48;1.10;;;22.30;60.30;;;;;;5088735;28;20036;-50
2022/06/28 11:12:31;;;;;;;3.00;1.40;;;22.30;60.30;;;;;;5105364;28;20027;-48
2022/06/28 11:14:59;;;;;;;2.35;1.23;;;22.30;60.30;;;;;;5100428;28;20067;-48
2022/06/28 11:17:29;;;;;;;1.95;1.25;;;22.30;60.30;;;;;;5105675;28;20024;-50
2022/06/28 11:20:03;;;;;;;1.70;1.15;;;22.30;60.30;;;;;;5104441;28;20028;-50
2022/06/28 11:22:30;;;;;;;2.35;1.30;;;22.30;60.40;;;;;;5086329;28;20048;-46
2022/06/28 11:24:57;;;;;;;1.40;1.10;;;22.30;60.30;;;;;;5084777;28;20047;-47
2022/06/28 11:27:24;;;;;;;1.83;1.10;;;22.30;60.30;;;;;;5074026;28;20037;-46
2022/06/28 11:30:08;;;;;;;3.85;1.40;;;22.30;60.30;;;;;;5075128;28;20037;-48
2022/06/28 11:32:35;;;;;;;2.55;1.30;;;22.30;60.30;;;;;;5071380;28;20028;-48
2022/06/28 11:35:05;;;;;;;1.70;1.10;;;22.20;60.30;;;;;;5071655;28;20117;-48
2022/06/28 11:37:47;;;;;;;1.48;1.10;;;22.30;60.40;;;;;;5070735;28;20495;-48
2022/06/28 11:40:13;;;;;;;1.38;1.20;;;22.20;60.40;;;;;;5073947;28;20040;-47
2022/06/28 11:42:39;;;;;;;1.00;0.90;;;22.20;60.30;;;;;;5071231;28;20160;-46
2022/06/28 11:45:06;;;;;;;1.42;0.98;;;22.20;60.40;;;;;;5075185;28;20145;-47
2022/06/28 11:47:32;;;;;;;1.65;1.00;;;22.20;61.10;;;;;;5070485;28;20032;-47
2022/06/28 11:50:28;;;;;;;1.25;1.00;;;22.20;60.40;;;;;;5071299;28;20040;-49
2022/06/28 11:52:55;;;;;;;1.83;1.00;;;22.20;60.40;;;;;;5065717;28;20037;-46
2022/06/28 11:55:40;;;;;;;;;;;22.20;60.40;;;;;;5071950;28;20100;-48
2022/06/28 11:58:20;;;;;;;2.08;0.93;;;22.20;60.30;;;;;;5079587;28;19915;-47
2022/06/28 12:01:24;;;;;;;1.75;1.10;;;22.20;60.50;;;;;;5084476;28;20028;-48
2022/06/28 12:03:50;;;;;;;1.48;1.02;;;22.20;60.50;;;;;;5068433;28;20029;-47
2022/06/28 12:06:23;;;;;;;2.03;1.25;;;22.20;60.50;;;;;;5071904;28;20047;-48
2022/06/28 12:08:55;;;;;;;1.65;1.00;;;22.20;60.50;;;;;;5100489;28;20036;-51
2022/06/28 12:11:27;;;;;;;1.58;0.93;;;22.20;60.50;;;;;;5103258;28;20040;-48
2022/06/28 12:14:02;;;;;;;1.55;1.00;;;22.20;60.60;;;;;;5076169;28;20043;-50
2022/06/28 12:16:50;;;;;;;1.23;0.90;;;22.20;60.60;;;;;;5104066;28;20453;-47
2022/06/28 12:19:19;;;;;;;1.70;1.15;;;22.20;60.60;;;;;;5095575;28;20048;-48
2022/06/28 12:22:11;;;;;;;1.80;1.15;;;22.20;60.60;;;;;;5084297;28;20025;-51
2022/06/28 12:24:47;;;;;;;1.25;1.00;;;22.20;60.60;;;;;;5084208;28;20039;-48
2022/06/28 12:27:24;;;;;;;3.15;0.93;;;22.20;60.70;;;;;;5071319;28;20036;-50
2022/06/28 12:29:50;;;;;;;1.35;1.10;;;22.20;60.70;;;;;;5064447;28;20446;-48
2022/06/28 12:32:16;;;;;;;1.35;0.90;;;22.20;60.80;;;;;;5068215;28;20033;-48
2022/06/28 12:34:43;;;;;;;1.67;1.00;;;22.20;60.70;;;;;;5066938;28;20110;-46
2022/06/28 12:37:09;;;;;;;1.30;1.20;;;22.20;60.70;;;;;;5067236;28;20083;-49
2022/06/28 12:39:35;;;;;;;1.33;1.00;;;22.20;60.70;;;;;;5066748;28;20021;-47
2022/06/28 12:42:02;;;;;;;1.20;1.10;;;22.20;60.80;;;;;;5065168;28;20533;-48
2022/06/28 12:44:28;;;;;;;1.50;1.08;;;22.20;60.80;;;;;;5064651;28;20029;-48
2022/06/28 12:46:54;;;;;;;0.80;0.80;;;22.20;60.70;;;;;;5057901;28;20028;-46
2022/06/28 12:49:20;;;;;;;1.67;1.00;;;22.20;60.90;;;;;;5067778;28;20034;-51
2022/06/28 12:51:46;;;;;;;1.83;0.70;;;22.20;60.80;;;;;;5061603;28;20047;-48
2022/06/28 12:54:13;;;;;;;1.38;0.88;;;22.20;60.80;;;;;;5062817;28;20029;-49
2022/06/28 12:56:39;;;;;;;1.27;1.17;;;22.20;60.90;;;;;;5069774;28;20033;-46